Air Quality Table

TIMESTAMP NO2 SO2 O3 PM10 PM2.5 CO TEMP HUM WS WD NO
2021-05-12 11:00 1.55 ug/m3 0.2 ug/m3 108.62 ug/m3 31.88 ug/m3 16.93 ug/m3 0.14 mg/m3 18.02 C 78.59 % 8.73 m/s 309.17 Deg 0.14 ug/m3
2021-05-12 10:00 1.17 ug/m3 0.1 ug/m3 104.54 ug/m3 31.98 ug/m3 17.73 ug/m3 0.14 mg/m3 17.75 C 80.46 % 8.25 m/s 313.22 Deg 0.1 ug/m3
2021-05-12 09:00 1.09 ug/m3 0.03 ug/m3 100.03 ug/m3 31.3 ug/m3 15.3 ug/m3 0.14 mg/m3 17.43 C 80.67 % 8.39 m/s 314.65 Deg 0.11 ug/m3
2021-05-12 08:00 1.59 ug/m3 0.07 ug/m3 97.26 ug/m3 31.1 ug/m3 15.18 ug/m3 0.14 mg/m3 17 C 81.69 % 8.66 m/s 313 Deg 0.18 ug/m3
2021-05-12 07:00 1.09 ug/m3 0.01 ug/m3 95.61 ug/m3 29.6 ug/m3 11.2 ug/m3 0.14 mg/m3 16.67 C 80.54 % 8.96 m/s 311.16 Deg 0.1 ug/m3
2021-05-12 06:00 1.19 ug/m3 0.02 ug/m3 93.95 ug/m3 27.15 ug/m3 10.48 ug/m3 0.14 mg/m3 16.38 C 82.36 % 9.96 m/s 315 Deg 0.03 ug/m3
2021-05-12 05:00 1.08 ug/m3 0 ug/m3 93.97 ug/m3 28.83 ug/m3 10.78 ug/m3 0.13 mg/m3 16.46 C 85.15 % 8.69 m/s 314.46 Deg 0.01 ug/m3
2021-05-12 04:00 0.36 ug/m3 0.02 ug/m3 93.28 ug/m3 29.45 ug/m3 13.73 ug/m3 0.14 mg/m3 16.55 C 91.38 % 7.16 m/s 315.27 Deg 0.01 ug/m3
2021-05-12 03:00 2.44 ug/m3 0.06 ug/m3 91.18 ug/m3 31.8 ug/m3 13.95 ug/m3 0.14 mg/m3 16.76 C 92.7 % 6.68 m/s 315.92 Deg 0 ug/m3
2021-05-12 02:00 6.16 ug/m3 0.14 ug/m3 89.04 ug/m3 25.25 ug/m3 10.25 ug/m3 0.13 mg/m3 17 C 90.85 % 5.62 m/s 320.78 Deg 0.02 ug/m3
2021-05-12 01:00 2.16 ug/m3 0.11 ug/m3 96.72 ug/m3 29 ug/m3 14.6 ug/m3 0.14 mg/m3 17.01 C 90.41 % 5.81 m/s 330.82 Deg 0.01 ug/m3
2021-05-12 00:00 4.46 ug/m3 0.09 ug/m3 98.23 ug/m3 27.2 ug/m3 15.2 ug/m3 0.15 mg/m3 17.25 C 95.95 % 4.31 m/s 330.75 Deg 0 ug/m3
2021-05-11 23:00 4.93 ug/m3 0.15 ug/m3 102.41 ug/m3 19.85 ug/m3 14.13 ug/m3 0.15 mg/m3 17.52 C 94.08 % 5.35 m/s 329.78 Deg 0.02 ug/m3
2021-05-11 22:00 3.72 ug/m3 0.11 ug/m3 97.42 ug/m3 19.4 ug/m3 11.38 ug/m3 0.15 mg/m3 17.54 C 95.57 % 3.89 m/s 313.94 Deg 0 ug/m3
2021-05-11 21:00 3.43 ug/m3 0.11 ug/m3 96.94 ug/m3 22.85 ug/m3 12.48 ug/m3 0.15 mg/m3 17.57 C 96.94 % 2.24 m/s 320.36 Deg 0.01 ug/m3
2021-05-11 20:00 2.56 ug/m3 0.14 ug/m3 99.54 ug/m3 24.4 ug/m3 15.28 ug/m3 0.15 mg/m3 17.67 C 93.7 % 1.37 m/s 92.7 Deg 0.01 ug/m3
2021-05-11 19:00 2.38 ug/m3 0.16 ug/m3 103.83 ug/m3 26.25 ug/m3 15.18 ug/m3 0.15 mg/m3 18.33 C 89.2 % 2.52 m/s 32.66 Deg 0.05 ug/m3
2021-05-11 18:00 1.34 ug/m3 0.19 ug/m3 110.18 ug/m3 30.63 ug/m3 15.95 ug/m3 0.14 mg/m3 19.92 C 75.58 % 2.66 m/s 269.46 Deg 0.06 ug/m3
2021-05-11 17:00 2 ug/m3 0.3 ug/m3 111.64 ug/m3 27.85 ug/m3 15.93 ug/m3 0.14 mg/m3 21.79 C 59.8 % 2.34 m/s 260.48 Deg 0.17 ug/m3
2021-05-11 16:00 2.57 ug/m3 0.34 ug/m3 110.47 ug/m3 30.85 ug/m3 14.53 ug/m3 0.14 mg/m3 22.55 C 59.02 % 2.66 m/s 183.63 Deg 0.26 ug/m3
2021-05-11 15:00 3.1 ug/m3 0.37 ug/m3 112.65 ug/m3 39.5 ug/m3 17.33 ug/m3 0.15 mg/m3 23.18 C 56.43 % 2.14 m/s 217.79 Deg 0.35 ug/m3
2021-05-11 14:00 3.99 ug/m3 0.38 ug/m3 110.83 ug/m3 30.35 ug/m3 15.48 ug/m3 0.15 mg/m3 23.33 C 54.72 % 4.4 m/s 110.81 Deg 0.51 ug/m3

It is to be noted that the data is provisional and subject to quality assurance procedures. For validated data kindly refer your request to contact.air@era.org.mt